createdAt,value
2022-10-17T03:01:12.639Z,8.90
2022-10-17T03:03:41.166Z,6.70
2022-10-17T03:06:09.624Z,7.43
2022-10-17T03:11:11.589Z,7.90
2022-10-17T03:13:41.324Z,7.37
2022-10-17T03:16:11.437Z,7.33
2022-10-17T03:18:40.459Z,7.03
2022-10-17T03:21:09.756Z,6.47
2022-10-17T03:23:38.327Z,6.90
2022-10-17T03:26:09.140Z,6.73
2022-10-17T03:28:37.981Z,6.40
2022-10-17T03:31:15.760Z,6.77
2022-10-17T03:33:45.795Z,6.53
2022-10-17T03:36:17.916Z,6.70
2022-10-17T03:38:48.284Z,6.63
2022-10-17T03:41:18.542Z,5.73
2022-10-17T03:43:46.998Z,6.70
2022-10-17T03:48:46.678Z,6.67
2022-10-17T03:51:15.459Z,6.87
2022-10-17T03:53:48.515Z,6.20
2022-10-17T03:56:19.687Z,7.03
2022-10-17T03:58:56.314Z,6.23
2022-10-17T04:01:26.502Z,8.10
2022-10-17T04:03:58.035Z,8.07
2022-10-17T04:06:30.262Z,7.30
2022-10-17T04:08:58.830Z,7.77
2022-10-17T04:11:33.412Z,7.67
2022-10-17T04:14:02.756Z,8.07
2022-10-17T04:16:33.261Z,7.40
2022-10-17T04:19:05.246Z,8.93
2022-10-17T04:21:40.908Z,7.10
2022-10-17T04:24:12.986Z,7.50
2022-10-17T04:26:46.682Z,7.33
2022-10-17T04:29:16.273Z,7.20
2022-10-17T04:31:47.909Z,8.40
2022-10-17T04:34:23.552Z,8.50
2022-10-17T04:36:52.937Z,7.50
2022-10-17T04:39:21.554Z,7.43
2022-10-17T04:41:50.058Z,6.60
2022-10-17T04:44:18.498Z,7.73
2022-10-17T04:46:53.879Z,6.87
2022-10-17T04:49:24.254Z,6.50
2022-10-17T04:51:55.650Z,6.97
2022-10-17T04:54:53.655Z,7.13
2022-10-17T04:57:22.512Z,6.90
2022-10-17T04:59:58.404Z,6.73
2022-10-17T05:02:50.658Z,6.47
2022-10-17T05:05:19.231Z,6.73
2022-10-17T05:07:50.088Z,6.70
2022-10-17T05:10:21.136Z,7.27
2022-10-17T05:12:52.101Z,6.80
2022-10-17T05:15:23.978Z,6.63
2022-10-17T05:17:57.957Z,6.70
2022-10-17T05:20:28.711Z,7.53
2022-10-17T05:22:57.919Z,7.73
2022-10-17T05:25:29.804Z,7.50
2022-10-17T05:27:58.299Z,6.80
2022-10-17T05:30:26.905Z,8.10
2022-10-17T05:33:01.160Z,6.30
2022-10-17T05:35:30.119Z,7.80
2022-10-17T05:38:00.710Z,7.23
2022-10-17T05:40:31.132Z,6.90
2022-10-17T05:43:00.556Z,7.47
2022-10-17T05:45:28.967Z,7.47
2022-10-17T05:47:58.477Z,6.60
2022-10-17T05:50:28.277Z,7.27
2022-10-17T05:53:16.951Z,7.10
2022-10-17T05:55:57.966Z,7.20
2022-10-17T06:01:27.059Z,7.30
2022-10-17T06:03:55.683Z,6.37
2022-10-17T06:06:25.571Z,6.77
2022-10-17T06:08:54.071Z,7.17
2022-10-17T06:11:28.361Z,6.70
2022-10-17T06:13:56.845Z,7.80
2022-10-17T06:16:27.496Z,6.67
2022-10-17T06:18:55.960Z,7.40
2022-10-17T06:21:28.844Z,8.20
2022-10-17T06:24:07.323Z,6.90
2022-10-17T06:26:41.690Z,7.47
2022-10-17T06:29:12.113Z,8.20
2022-10-17T06:31:48.158Z,7.90
2022-10-17T06:34:16.951Z,7.80
2022-10-17T06:36:47.681Z,7.47
2022-10-17T06:39:16.766Z,9.30
2022-10-17T06:41:53.169Z,8.50
2022-10-17T06:44:22.761Z,7.80
2022-10-17T06:47:10.879Z,8.67
2022-10-17T06:49:39.486Z,10.27
2022-10-17T06:52:32.106Z,8.23
2022-10-17T06:55:22.653Z,7.10
2022-10-17T06:58:18.232Z,7.20
2022-10-17T07:01:14.488Z,7.30
2022-10-17T07:03:44.661Z,8.00
2022-10-17T07:06:13.539Z,7.37
2022-10-17T07:08:47.057Z,8.23
2022-10-17T07:11:20.412Z,8.67
2022-10-17T07:13:51.474Z,9.37
2022-10-17T07:16:21.220Z,7.07
2022-10-17T07:18:54.357Z,7.43
2022-10-17T07:21:23.110Z,8.83
2022-10-17T07:23:53.109Z,7.10
2022-10-17T07:26:22.350Z,7.80
2022-10-17T07:28:55.114Z,9.13
2022-10-17T07:31:36.989Z,7.47
2022-10-17T07:34:05.466Z,7.40
2022-10-17T07:36:33.900Z,8.27
2022-10-17T07:39:06.253Z,8.10
2022-10-17T07:41:37.123Z,7.47
2022-10-17T07:44:07.490Z,8.50
2022-10-17T07:46:42.623Z,7.70
2022-10-17T07:49:10.994Z,8.47
2022-10-17T07:51:39.404Z,9.00
2022-10-17T07:54:09.217Z,6.60
2022-10-17T07:56:38.272Z,8.43
2022-10-17T07:59:09.262Z,7.80
2022-10-17T08:01:38.147Z,7.17
2022-10-17T08:04:06.803Z,6.83
2022-10-17T08:06:35.253Z,7.80
2022-10-17T08:09:03.923Z,7.83
2022-10-17T08:11:33.687Z,7.10
2022-10-17T08:14:02.077Z,7.93
2022-10-17T08:16:30.411Z,6.97
2022-10-17T08:18:58.877Z,6.57
2022-10-17T08:21:27.278Z,6.60
2022-10-17T08:23:55.707Z,5.90
2022-10-17T08:26:24.240Z,8.03
2022-10-17T08:28:54.214Z,7.60
2022-10-17T08:31:23.643Z,6.20
2022-10-17T08:33:52.436Z,5.70
2022-10-17T08:36:22.292Z,7.03
2022-10-17T08:38:53.020Z,6.00
2022-10-17T08:41:57.695Z,5.27
2022-10-17T08:44:43.370Z,6.87
2022-10-17T08:47:15.023Z,5.37
2022-10-17T08:49:52.729Z,5.47
2022-10-17T08:52:31.811Z,5.50
2022-10-17T08:55:00.721Z,5.50
2022-10-17T08:57:29.944Z,4.30
2022-10-17T08:59:59.862Z,4.63
2022-10-17T09:02:55.597Z,4.13
2022-10-17T09:05:34.879Z,5.47
2022-10-17T09:08:17.716Z,5.30
2022-10-17T09:10:58.914Z,5.40
2022-10-17T09:13:50.846Z,4.00
2022-10-17T09:16:43.975Z,4.80
2022-10-17T09:19:24.386Z,4.90
2022-10-17T09:21:59.880Z,4.87
2022-10-17T09:24:47.056Z,5.60
2022-10-17T09:27:26.550Z,5.00
2022-10-17T09:30:13.069Z,5.40
2022-10-17T09:32:47.784Z,5.20
2022-10-17T09:35:16.827Z,4.43
2022-10-17T09:37:46.217Z,5.10
2022-10-17T09:40:26.504Z,4.10
2022-10-17T09:42:55.534Z,4.33
2022-10-17T09:45:26.881Z,5.60
2022-10-17T09:48:09.165Z,4.17
2022-10-17T09:50:38.489Z,6.00
2022-10-17T09:53:14.646Z,5.90
2022-10-17T09:55:46.313Z,4.60
2022-10-17T09:58:14.758Z,5.00
2022-10-17T10:00:45.957Z,5.27
2022-10-17T10:03:21.423Z,4.63
2022-10-17T10:06:04.265Z,4.30
2022-10-17T10:08:35.693Z,4.17
2022-10-17T10:11:07.938Z,5.10
2022-10-17T10:13:37.942Z,4.40
2022-10-17T10:16:24.235Z,4.53
2022-10-17T10:18:54.471Z,4.37
2022-10-17T10:21:24.812Z,4.70
2022-10-17T10:24:13.764Z,4.00
2022-10-17T10:26:45.579Z,4.50
2022-10-17T10:29:28.965Z,3.90
2022-10-17T10:31:58.609Z,4.60
2022-10-17T10:34:31.389Z,4.10
2022-10-17T10:37:04.120Z,4.57
2022-10-17T10:39:43.894Z,5.37
2022-10-17T10:42:26.617Z,4.10
2022-10-17T10:44:59.365Z,3.90
2022-10-17T10:47:30.510Z,4.40
2022-10-17T10:50:28.097Z,3.13
2022-10-17T10:53:14.383Z,3.87
2022-10-17T10:55:50.200Z,4.20
2022-10-17T10:58:42.156Z,4.00
2022-10-17T11:01:20.485Z,4.40
2022-10-17T11:04:01.839Z,3.93
2022-10-17T11:06:38.108Z,4.13
2022-10-17T11:09:20.529Z,4.83
2022-10-17T11:11:56.963Z,4.10
2022-10-17T11:14:39.976Z,3.77
2022-10-17T11:17:20.708Z,3.93
2022-10-17T11:20:07.903Z,3.63
2022-10-17T11:22:42.625Z,3.97
2022-10-17T11:25:28.920Z,3.50
2022-10-17T11:28:00.873Z,3.20
2022-10-17T11:33:25.887Z,3.10
2022-10-17T11:36:01.425Z,3.90
2022-10-17T11:38:44.344Z,3.77
2022-10-17T11:41:17.509Z,3.70
2022-10-17T11:43:54.187Z,3.50
2022-10-17T11:46:25.465Z,3.30
2022-10-17T11:49:07.946Z,3.73
2022-10-17T11:52:01.903Z,3.50
2022-10-17T11:54:38.920Z,3.50
2022-10-17T11:57:38.031Z,3.07
